createdAt,value
2023-04-15T00:00:58.870Z,10.00
2023-04-15T00:03:25.689Z,10.04
2023-04-15T00:05:52.722Z,10.04
2023-04-15T00:08:19.576Z,10.04
2023-04-15T00:10:46.738Z,9.99
2023-04-15T00:13:13.395Z,10.00
2023-04-15T00:15:39.838Z,9.95
2023-04-15T00:18:07.964Z,9.92
2023-04-15T00:20:35.259Z,9.86
2023-04-15T00:23:02.508Z,9.89
2023-04-15T00:25:29.086Z,9.90
2023-04-15T00:27:55.529Z,9.91
2023-04-15T00:30:22.019Z,9.89
2023-04-15T00:32:49.557Z,9.86
2023-04-15T00:35:16.504Z,9.86
2023-04-15T00:37:44.812Z,9.96
2023-04-15T00:40:13.669Z,9.92
2023-04-15T00:42:40.170Z,9.88
2023-04-15T00:45:08.759Z,9.84
2023-04-15T00:47:37.223Z,9.84
2023-04-15T00:50:03.915Z,9.72
2023-04-15T00:52:30.845Z,9.73
2023-04-15T00:54:57.629Z,9.73
2023-04-15T00:57:24.142Z,9.78
2023-04-15T00:59:52.576Z,9.73
2023-04-15T01:02:19.206Z,9.49
2023-04-15T01:04:45.644Z,9.35
2023-04-15T01:07:12.023Z,9.29
2023-04-15T01:09:38.589Z,9.20
2023-04-15T01:12:05.885Z,9.15
2023-04-15T01:14:33.568Z,8.81
2023-04-15T01:17:00.176Z,8.59
2023-04-15T01:19:27.341Z,8.47
2023-04-15T01:21:54.003Z,8.50
2023-04-15T01:24:21.212Z,8.62
2023-04-15T01:26:49.760Z,8.54
2023-04-15T01:29:16.585Z,8.46
2023-04-15T01:31:51.019Z,8.51
2023-04-15T01:34:17.632Z,8.38
2023-04-15T01:36:44.042Z,8.33
2023-04-15T01:39:10.424Z,8.41
2023-04-15T01:41:36.812Z,8.31
2023-04-15T01:44:03.270Z,8.14
2023-04-15T01:46:29.749Z,8.22
2023-04-15T01:48:56.567Z,8.38
2023-04-15T01:51:23.214Z,8.45
2023-04-15T01:53:49.693Z,8.35
2023-04-15T01:56:16.973Z,8.17
2023-04-15T01:58:43.414Z,8.14
2023-04-15T02:01:11.391Z,7.97
2023-04-15T02:03:39.416Z,8.11
2023-04-15T02:06:06.127Z,8.15
2023-04-15T02:08:32.555Z,8.12
2023-04-15T02:10:59.001Z,8.15
2023-04-15T02:13:25.447Z,8.04
2023-04-15T02:15:52.977Z,8.08
2023-04-15T02:18:19.374Z,8.10
2023-04-15T02:20:46.912Z,8.04
2023-04-15T02:23:13.507Z,8.10
2023-04-15T02:25:39.991Z,8.12
2023-04-15T02:28:06.670Z,8.13
2023-04-15T02:30:33.998Z,8.13
2023-04-15T02:33:01.765Z,8.06
2023-04-15T02:35:28.300Z,7.98
2023-04-15T02:37:54.778Z,7.98
2023-04-15T02:40:21.594Z,7.88
2023-04-15T02:42:48.056Z,7.85
2023-04-15T02:45:14.597Z,7.81
2023-04-15T02:47:41.613Z,7.71
2023-04-15T02:50:09.901Z,7.59
2023-04-15T02:52:36.372Z,7.64
2023-04-15T02:55:04.290Z,7.74
2023-04-15T02:57:30.935Z,7.84
2023-04-15T02:59:57.389Z,7.81
2023-04-15T03:02:24.333Z,7.73
2023-04-15T03:04:51.156Z,7.60
2023-04-15T03:07:18.257Z,7.40
2023-04-15T03:09:45.852Z,7.43
2023-04-15T03:12:12.326Z,7.43
2023-04-15T03:14:38.728Z,7.25
2023-04-15T03:17:05.135Z,7.16
2023-04-15T03:19:31.874Z,7.11
2023-04-15T03:21:58.292Z,7.12
2023-04-15T03:24:24.939Z,7.08
2023-04-15T03:26:51.448Z,7.00
2023-04-15T03:29:17.855Z,6.96
2023-04-15T03:31:44.260Z,6.97
2023-04-15T03:34:10.734Z,6.89
2023-04-15T03:36:37.223Z,6.80
2023-04-15T03:39:04.263Z,6.95
2023-04-15T03:41:30.985Z,7.13
2023-04-15T03:43:57.471Z,7.02
2023-04-15T03:46:24.002Z,6.95
2023-04-15T03:48:50.560Z,6.88
2023-04-15T03:51:16.999Z,6.94
2023-04-15T03:53:43.418Z,7.11
2023-04-15T03:56:09.897Z,7.14
2023-04-15T03:58:36.583Z,7.12
2023-04-15T04:01:03.235Z,7.12
2023-04-15T04:03:29.884Z,7.05
2023-04-15T04:05:56.650Z,6.99
2023-04-15T04:08:23.093Z,6.92
2023-04-15T04:10:49.487Z,6.87
2023-04-15T04:13:15.901Z,7.07
2023-04-15T04:15:42.375Z,7.28
2023-04-15T04:18:08.910Z,7.06
2023-04-15T04:20:35.579Z,7.10
2023-04-15T04:23:01.948Z,7.25
2023-04-15T04:25:28.518Z,7.30
2023-04-15T04:27:54.970Z,7.13
2023-04-15T04:30:21.440Z,7.16
2023-04-15T04:32:49.570Z,7.24
2023-04-15T04:35:16.103Z,7.20
2023-04-15T04:37:42.619Z,7.22
2023-04-15T04:40:09.559Z,7.24
2023-04-15T04:42:38.012Z,7.36
2023-04-15T04:45:06.181Z,7.32
2023-04-15T04:47:32.588Z,7.40
2023-04-15T04:49:59.000Z,7.54
2023-04-15T04:52:25.600Z,7.62
2023-04-15T04:54:52.013Z,7.75
2023-04-15T04:57:18.530Z,7.74
2023-04-15T04:59:44.986Z,7.72
2023-04-15T05:02:11.456Z,7.81
2023-04-15T05:04:37.878Z,7.95
2023-04-15T05:07:04.300Z,8.06
2023-04-15T05:09:32.460Z,8.04
2023-04-15T05:11:59.403Z,7.98
2023-04-15T05:14:25.998Z,7.90
2023-04-15T05:16:52.429Z,7.85
2023-04-15T05:19:18.798Z,7.90
2023-04-15T05:21:45.274Z,7.94
2023-04-15T05:24:11.660Z,8.03
2023-04-15T05:26:38.045Z,8.20
2023-04-15T05:29:04.641Z,8.31
2023-04-15T05:31:31.351Z,8.33
2023-04-15T05:33:57.904Z,8.32
2023-04-15T05:36:24.296Z,8.42
2023-04-15T05:38:50.895Z,8.55
2023-04-15T05:41:19.763Z,8.69
2023-04-15T05:43:46.420Z,8.74
2023-04-15T05:46:12.918Z,8.77
2023-04-15T05:48:39.481Z,8.87
2023-04-15T05:51:06.458Z,8.90
2023-04-15T05:53:32.962Z,8.99
2023-04-15T05:55:59.386Z,8.98
2023-04-15T05:58:26.082Z,8.94
2023-04-15T06:00:52.984Z,9.04
2023-04-15T06:03:19.684Z,9.15
2023-04-15T06:05:46.184Z,9.08
2023-04-15T06:08:12.570Z,9.11
2023-04-15T06:10:39.058Z,9.14
2023-04-15T06:13:05.985Z,9.21
2023-04-15T06:15:32.468Z,9.25
2023-04-15T06:17:59.347Z,9.35
2023-04-15T06:20:26.147Z,9.43
2023-04-15T06:22:52.707Z,9.39
2023-04-15T06:25:19.127Z,9.38
2023-04-15T06:27:46.405Z,9.30
2023-04-15T06:30:12.919Z,9.38
2023-04-15T06:32:39.554Z,9.41
2023-04-15T06:35:06.152Z,9.38
2023-04-15T06:37:32.715Z,9.39
2023-04-15T06:39:59.106Z,9.46
2023-04-15T06:42:25.695Z,9.58
2023-04-15T06:44:52.203Z,9.63
2023-04-15T06:47:19.710Z,9.68
2023-04-15T06:49:46.241Z,9.82
2023-04-15T06:52:13.590Z,9.86
2023-04-15T06:54:40.584Z,10.04
2023-04-15T06:57:07.747Z,10.14
2023-04-15T06:59:34.181Z,10.22
2023-04-15T07:02:00.833Z,10.18
2023-04-15T07:04:31.894Z,10.22
2023-04-15T07:06:58.515Z,10.15
2023-04-15T07:09:25.680Z,10.33
2023-04-15T07:11:52.469Z,10.40
2023-04-15T07:14:18.991Z,10.58
2023-04-15T07:16:45.617Z,10.78
2023-04-15T07:19:12.655Z,11.06
2023-04-15T07:21:41.785Z,11.14
2023-04-15T07:24:10.765Z,11.34
2023-04-15T07:26:37.412Z,11.32
2023-04-15T07:29:04.283Z,11.47
2023-04-15T07:31:31.610Z,11.60
2023-04-15T07:33:58.702Z,11.52
2023-04-15T07:36:25.710Z,11.44
2023-04-15T07:38:52.895Z,11.44
2023-04-15T07:41:20.444Z,11.64
2023-04-15T07:43:47.068Z,11.80
2023-04-15T07:46:13.524Z,11.95
2023-04-15T07:48:40.139Z,11.98
2023-04-15T07:51:06.856Z,12.04
2023-04-15T07:53:33.617Z,12.10
2023-04-15T07:56:00.283Z,12.08
2023-04-15T07:58:27.383Z,12.07
2023-04-15T08:00:55.203Z,12.26
2023-04-15T08:03:22.847Z,12.53
2023-04-15T08:05:49.616Z,12.58
2023-04-15T08:08:16.742Z,12.63
2023-04-15T08:10:43.266Z,12.44
2023-04-15T08:13:09.771Z,12.33
2023-04-15T08:15:36.387Z,12.53
2023-04-15T08:18:02.854Z,12.71
2023-04-15T08:20:29.939Z,12.77
2023-04-15T08:22:56.372Z,12.61
2023-04-15T08:25:23.016Z,12.64
2023-04-15T08:27:49.518Z,12.66
2023-04-15T08:30:16.071Z,12.71
2023-04-15T08:32:46.900Z,12.79
2023-04-15T08:35:13.984Z,12.67
2023-04-15T08:37:40.439Z,12.84
2023-04-15T08:40:08.493Z,13.01
2023-04-15T08:42:42.875Z,13.23
2023-04-15T08:45:13.269Z,13.23
2023-04-15T08:47:40.476Z,13.25
2023-04-15T08:50:09.522Z,13.55
2023-04-15T08:52:36.325Z,13.65
2023-04-15T08:55:03.525Z,13.66
2023-04-15T08:57:30.043Z,13.91
2023-04-15T08:59:57.343Z,13.88
2023-04-15T09:02:26.342Z,14.10
2023-04-15T09:04:53.251Z,14.22
2023-04-15T09:07:19.701Z,14.10
2023-04-15T09:09:46.172Z,13.92
2023-04-15T09:12:15.159Z,13.67
2023-04-15T09:14:43.383Z,13.71
2023-04-15T09:17:10.537Z,14.16
2023-04-15T09:19:36.960Z,14.29
2023-04-15T09:22:03.996Z,14.46
2023-04-15T09:24:42.133Z,14.46
2023-04-15T09:27:09.239Z,14.63
2023-04-15T09:29:36.940Z,14.63
2023-04-15T09:32:15.120Z,14.97
2023-04-15T09:34:41.884Z,14.74
2023-04-15T09:37:10.806Z,14.59
2023-04-15T09:39:48.543Z,14.48
2023-04-15T09:42:15.715Z,14.44
2023-04-15T09:44:42.186Z,14.54
2023-04-15T09:47:08.628Z,14.64
2023-04-15T09:49:35.094Z,14.73
2023-04-15T09:52:06.286Z,14.66
2023-04-15T09:54:35.062Z,14.32
2023-04-15T09:57:06.452Z,14.44
2023-04-15T09:59:32.932Z,14.69
2023-04-15T10:01:59.768Z,14.94
2023-04-15T10:04:28.246Z,15.54
2023-04-15T10:06:54.899Z,15.58
2023-04-15T10:09:21.692Z,15.37
2023-04-15T10:11:50.224Z,15.12
2023-04-15T10:14:18.306Z,14.75
2023-04-15T10:16:48.970Z,15.37
2023-04-15T10:19:17.812Z,15.58
2023-04-15T10:21:45.158Z,15.86
2023-04-15T10:24:12.162Z,15.67
2023-04-15T10:26:38.722Z,15.74
2023-04-15T10:29:05.616Z,15.81
2023-04-15T10:31:32.821Z,15.48
2023-04-15T10:34:04.072Z,15.14
2023-04-15T10:36:31.021Z,15.06
2023-04-15T10:38:57.683Z,15.07
2023-04-15T10:41:26.809Z,15.05
2023-04-15T10:44:01.231Z,15.20
2023-04-15T10:46:39.996Z,15.28
2023-04-15T10:49:13.589Z,15.45
2023-04-15T10:51:45.758Z,15.77
2023-04-15T10:54:38.846Z,15.68
2023-04-15T10:57:05.940Z,15.35
2023-04-15T10:59:59.624Z,15.26
2023-04-15T11:02:52.080Z,15.78
2023-04-15T11:05:19.859Z,16.04
2023-04-15T11:07:48.880Z,16.38
2023-04-15T11:10:18.483Z,15.97
2023-04-15T11:12:45.952Z,16.02
2023-04-15T11:15:37.892Z,15.71
2023-04-15T11:18:16.390Z,15.77
2023-04-15T11:20:47.448Z,15.86
2023-04-15T11:23:28.624Z,15.77
2023-04-15T11:25:55.687Z,16.16
2023-04-15T11:28:26.625Z,15.89
2023-04-15T11:30:54.307Z,16.00
2023-04-15T11:33:21.148Z,16.71
2023-04-15T11:35:47.926Z,16.64
2023-04-15T11:38:16.554Z,16.63
2023-04-15T11:40:46.160Z,16.68
2023-04-15T11:43:20.758Z,16.51
2023-04-15T11:46:00.912Z,16.17
2023-04-15T11:48:29.612Z,15.97
2023-04-15T11:50:59.975Z,16.18
2023-04-15T11:53:43.185Z,16.31
2023-04-15T11:56:11.592Z,16.25
2023-04-15T11:58:39.109Z,16.25
2023-04-15T12:01:07.150Z,16.03
2023-04-15T12:03:39.369Z,16.01
2023-04-15T12:06:12.728Z,16.33
2023-04-15T12:08:59.104Z,16.47
2023-04-15T12:11:53.738Z,16.30
2023-04-15T12:14:30.706Z,16.21
2023-04-15T12:17:00.139Z,16.58
2023-04-15T12:19:29.434Z,16.60
2023-04-15T12:22:01.630Z,16.51
2023-04-15T12:24:30.898Z,16.67
2023-04-15T12:26:58.237Z,16.95
2023-04-15T12:29:29.223Z,16.65
2023-04-15T12:32:04.642Z,16.65
2023-04-15T12:34:39.462Z,16.57
2023-04-15T12:37:09.482Z,16.59
2023-04-15T12:39:37.901Z,16.65
2023-04-15T12:42:05.336Z,16.57
2023-04-15T12:44:33.200Z,16.65
2023-04-15T12:47:00.373Z,16.74
2023-04-15T12:49:27.728Z,16.58
2023-04-15T12:51:56.446Z,16.47
2023-04-15T12:54:23.151Z,16.39
2023-04-15T12:56:50.512Z,16.34
2023-04-15T12:59:18.562Z,16.54
2023-04-15T13:01:46.531Z,16.46
2023-04-15T13:04:13.090Z,16.42
2023-04-15T13:06:39.945Z,16.36
2023-04-15T13:09:06.833Z,16.34
2023-04-15T13:11:33.968Z,16.40
2023-04-15T13:14:08.358Z,16.41
2023-04-15T13:16:35.572Z,16.35
2023-04-15T13:19:03.869Z,16.29
2023-04-15T13:21:32.241Z,16.35
2023-04-15T13:23:59.492Z,16.40
2023-04-15T13:26:26.535Z,16.35
2023-04-15T13:28:53.212Z,16.38
2023-04-15T13:31:19.920Z,16.46
2023-04-15T13:33:46.468Z,16.56
2023-04-15T13:36:12.895Z,16.58
2023-04-15T13:38:39.337Z,16.62
2023-04-15T13:41:06.042Z,16.47
2023-04-15T13:43:34.254Z,16.49
2023-04-15T13:46:01.288Z,16.62
2023-04-15T13:48:28.756Z,16.69
2023-04-15T13:50:55.179Z,16.86
2023-04-15T13:53:21.726Z,17.04
2023-04-15T13:56:02.522Z,16.99
2023-04-15T13:58:29.226Z,17.02
2023-04-15T14:00:56.001Z,17.00
2023-04-15T14:03:22.759Z,16.67
2023-04-15T14:05:55.782Z,16.46
2023-04-15T14:08:22.933Z,16.56
2023-04-15T14:10:49.655Z,16.63
2023-04-15T14:13:16.220Z,16.66
2023-04-15T14:15:42.785Z,16.56
2023-04-15T14:18:09.464Z,16.46
2023-04-15T14:20:36.226Z,16.67
2023-04-15T14:23:02.834Z,16.56
2023-04-15T14:25:33.807Z,16.56
2023-04-15T14:28:01.527Z,16.61
2023-04-15T14:30:28.054Z,16.64
2023-04-15T14:32:54.601Z,16.60
2023-04-15T14:35:21.274Z,16.74
2023-04-15T14:37:47.801Z,16.87
2023-04-15T14:40:14.296Z,16.90
2023-04-15T14:42:40.805Z,17.05
2023-04-15T14:45:07.957Z,17.01
2023-04-15T14:47:34.565Z,17.06
2023-04-15T14:50:01.472Z,17.02
2023-04-15T14:52:28.193Z,17.00
2023-04-15T14:54:54.775Z,17.06
2023-04-15T14:57:21.649Z,17.05
2023-04-15T14:59:48.050Z,16.87
2023-04-15T15:02:17.364Z,16.72
2023-04-15T15:04:53.065Z,16.86
2023-04-15T15:07:19.714Z,16.99
2023-04-15T15:09:46.247Z,17.00
2023-04-15T15:12:12.648Z,16.84
2023-04-15T15:14:39.104Z,16.81
2023-04-15T15:17:05.777Z,16.90
2023-04-15T15:19:32.244Z,17.07
2023-04-15T15:21:58.782Z,17.00
2023-04-15T15:24:25.248Z,16.95
2023-04-15T15:26:51.826Z,16.91
2023-04-15T15:29:18.248Z,16.96
2023-04-15T15:31:44.714Z,16.88
2023-04-15T15:34:11.232Z,16.89
2023-04-15T15:36:37.661Z,16.90
2023-04-15T15:39:05.061Z,16.93
2023-04-15T15:41:33.311Z,16.96
2023-04-15T15:43:59.964Z,16.81
2023-04-15T15:46:28.084Z,16.78
2023-04-15T15:48:54.700Z,16.82
2023-04-15T15:51:21.182Z,16.77
2023-04-15T15:53:47.901Z,16.75
2023-04-15T15:56:14.374Z,16.72
2023-04-15T15:58:41.741Z,16.73
2023-04-15T16:01:08.315Z,16.77
2023-04-15T16:03:34.852Z,16.84
2023-04-15T16:06:01.662Z,16.82
2023-04-15T16:08:28.136Z,16.78
2023-04-15T16:10:54.857Z,16.73
2023-04-15T16:13:22.314Z,16.69
2023-04-15T16:15:51.991Z,16.65
2023-04-15T16:18:18.486Z,16.62
2023-04-15T16:20:44.963Z,16.59
2023-04-15T16:23:16.884Z,16.43
2023-04-15T16:25:44.603Z,16.50
2023-04-15T16:28:25.209Z,16.49
2023-04-15T16:30:52.712Z,16.47
2023-04-15T16:33:19.226Z,16.43
2023-04-15T16:35:45.804Z,16.37
2023-04-15T16:38:12.394Z,16.39
2023-04-15T16:40:38.895Z,16.30
2023-04-15T16:43:07.379Z,16.24
2023-04-15T16:45:33.863Z,16.22
2023-04-15T16:48:00.397Z,16.23
2023-04-15T16:50:27.145Z,16.22
2023-04-15T16:52:53.733Z,16.24
2023-04-15T16:55:20.389Z,16.18
2023-04-15T16:58:01.220Z,16.21
2023-04-15T17:00:29.488Z,16.30
2023-04-15T17:02:56.151Z,16.32
2023-04-15T17:05:22.810Z,16.34
2023-04-15T17:07:49.388Z,16.36
2023-04-15T17:10:16.159Z,16.29
2023-04-15T17:12:42.688Z,16.15
2023-04-15T17:15:09.814Z,16.03
2023-04-15T17:17:36.436Z,16.00
2023-04-15T17:20:03.696Z,15.99
2023-04-15T17:22:30.170Z,15.97
2023-04-15T17:24:56.908Z,15.94
2023-04-15T17:27:24.690Z,15.87
2023-04-15T17:29:51.387Z,15.81
2023-04-15T17:32:17.852Z,15.75
2023-04-15T17:34:50.044Z,15.49
2023-04-15T17:37:17.761Z,15.06
2023-04-15T17:39:44.273Z,14.80
2023-04-15T17:42:11.354Z,14.52
2023-04-15T17:44:37.770Z,14.04
2023-04-15T17:47:04.243Z,13.60
2023-04-15T17:49:31.314Z,13.46
2023-04-15T17:51:57.780Z,13.34
2023-04-15T17:54:24.220Z,13.28
2023-04-15T17:56:50.652Z,13.17
2023-04-15T17:59:17.353Z,13.19
2023-04-15T18:01:45.354Z,13.06
2023-04-15T18:04:12.450Z,13.02
2023-04-15T18:06:39.256Z,13.06
2023-04-15T18:09:06.591Z,13.05
2023-04-15T18:11:33.518Z,12.92
2023-04-15T18:14:02.397Z,12.87
2023-04-15T18:16:28.966Z,12.88
2023-04-15T18:18:55.603Z,12.92
2023-04-15T18:21:22.133Z,12.98
2023-04-15T18:23:48.506Z,13.06
2023-04-15T18:26:14.901Z,13.07
2023-04-15T18:28:41.336Z,12.98
2023-04-15T18:31:07.805Z,12.92
2023-04-15T18:33:35.739Z,12.97
2023-04-15T18:36:05.103Z,12.92
2023-04-15T18:38:31.803Z,12.98
2023-04-15T18:40:58.777Z,12.92
2023-04-15T18:43:25.289Z,12.88
2023-04-15T18:45:54.509Z,12.85
2023-04-15T18:48:21.119Z,12.81
2023-04-15T18:50:48.164Z,12.85
2023-04-15T18:53:15.340Z,12.92
2023-04-15T18:55:41.798Z,12.84
2023-04-15T18:58:09.356Z,12.71
2023-04-15T19:00:39.066Z,12.63
2023-04-15T19:03:06.359Z,12.74
2023-04-15T19:05:33.212Z,12.89
2023-04-15T19:07:59.868Z,12.91
2023-04-15T19:10:27.981Z,12.93
2023-04-15T19:12:55.151Z,12.93
2023-04-15T19:15:21.687Z,12.96
2023-04-15T19:17:48.213Z,12.90
2023-04-15T19:20:14.696Z,12.92
2023-04-15T19:22:42.947Z,12.98
2023-04-15T19:25:09.671Z,13.02
2023-04-15T19:27:38.062Z,13.06
2023-04-15T19:30:08.003Z,13.08
2023-04-15T19:32:35.425Z,13.07
2023-04-15T19:35:01.933Z,12.99
2023-04-15T19:37:28.852Z,12.96
2023-04-15T19:39:56.032Z,12.93
2023-04-15T19:42:22.584Z,12.95
2023-04-15T19:44:48.996Z,13.03
2023-04-15T19:47:15.450Z,13.05
2023-04-15T19:49:41.941Z,13.04
2023-04-15T19:52:08.653Z,13.05
2023-04-15T19:54:35.128Z,13.00
2023-04-15T19:57:02.092Z,13.04
2023-04-15T19:59:28.638Z,13.07
2023-04-15T20:01:55.186Z,13.05
2023-04-15T20:04:22.584Z,13.10
2023-04-15T20:06:50.510Z,13.17
2023-04-15T20:09:17.405Z,13.17
2023-04-15T20:12:06.188Z,13.16
2023-04-15T20:14:31.383Z,13.15
2023-04-15T20:17:01.951Z,13.15
2023-04-15T20:19:28.870Z,13.19
2023-04-15T20:21:56.264Z,13.25
2023-04-15T20:24:24.861Z,13.18
2023-04-15T20:26:52.275Z,13.14
2023-04-15T20:29:18.714Z,13.14
2023-04-15T20:31:45.427Z,13.09
2023-04-15T20:34:12.318Z,13.15
2023-04-15T20:36:38.875Z,13.15
2023-04-15T20:39:05.549Z,13.09
2023-04-15T20:41:32.185Z,13.08
2023-04-15T20:43:58.610Z,13.04
2023-04-15T20:46:27.359Z,13.05
2023-04-15T20:48:54.382Z,13.01
2023-04-15T20:51:20.875Z,13.01
2023-04-15T20:53:47.308Z,13.00
2023-04-15T20:56:13.725Z,12.95
2023-04-15T20:58:40.270Z,12.93
2023-04-15T21:01:06.795Z,12.89
2023-04-15T21:03:33.370Z,12.91
2023-04-15T21:06:00.325Z,12.91
2023-04-15T21:08:29.690Z,12.83
2023-04-15T21:10:56.884Z,12.77
2023-04-15T21:13:24.162Z,12.80
2023-04-15T21:15:53.395Z,12.79
2023-04-15T21:18:21.537Z,12.81
2023-04-15T21:20:59.598Z,12.84
2023-04-15T21:23:28.519Z,12.77
2023-04-15T21:25:55.706Z,12.72
2023-04-15T21:28:22.426Z,12.66
2023-04-15T21:30:49.535Z,12.63
2023-04-15T21:33:16.636Z,12.63
2023-04-15T21:35:43.085Z,12.62
2023-04-15T21:38:09.510Z,12.58
2023-04-15T21:40:40.271Z,12.51
2023-04-15T21:43:07.691Z,12.49
2023-04-15T21:45:34.785Z,12.42
2023-04-15T21:48:07.662Z,12.30
2023-04-15T21:50:39.268Z,12.18
2023-04-15T21:53:07.700Z,12.17
2023-04-15T21:55:34.283Z,12.10
2023-04-15T21:58:00.892Z,11.97
2023-04-15T22:00:27.667Z,12.07
2023-04-15T22:02:54.142Z,12.06
2023-04-15T22:05:20.713Z,12.07
2023-04-15T22:07:47.211Z,12.00
2023-04-15T22:10:13.621Z,11.82
2023-04-15T22:12:41.882Z,11.72
2023-04-15T22:15:08.741Z,11.79
2023-04-15T22:17:35.338Z,11.88
2023-04-15T22:20:02.059Z,11.91
2023-04-15T22:22:43.592Z,11.92
2023-04-15T22:25:11.258Z,11.90
2023-04-15T22:27:37.660Z,11.87
2023-04-15T22:30:04.717Z,11.86
2023-04-15T22:32:31.276Z,11.79
2023-04-15T22:34:57.655Z,11.77
2023-04-15T22:37:24.184Z,11.69
2023-04-15T22:39:51.777Z,11.63
2023-04-15T22:42:18.202Z,11.52
2023-04-15T22:44:44.682Z,11.35
2023-04-15T22:47:11.180Z,11.22
2023-04-15T22:49:37.602Z,11.12
2023-04-15T22:52:04.137Z,11.14
2023-04-15T22:54:30.677Z,11.12
2023-04-15T22:56:57.810Z,11.16
2023-04-15T22:59:24.522Z,11.16
2023-04-15T23:01:51.121Z,11.21
2023-04-15T23:04:25.172Z,11.22
2023-04-15T23:06:52.451Z,11.10
2023-04-15T23:09:18.848Z,11.09
2023-04-15T23:11:45.485Z,11.10
2023-04-15T23:14:11.901Z,11.05
2023-04-15T23:16:38.344Z,11.11
2023-04-15T23:19:04.883Z,11.10
2023-04-15T23:21:31.404Z,11.07
2023-04-15T23:23:57.776Z,11.07
2023-04-15T23:26:24.253Z,11.02
2023-04-15T23:28:50.678Z,11.07
2023-04-15T23:31:17.189Z,11.14
2023-04-15T23:33:43.573Z,11.10
2023-04-15T23:36:09.976Z,11.04
2023-04-15T23:38:36.377Z,11.09
2023-04-15T23:41:02.773Z,11.05
2023-04-15T23:43:29.166Z,10.97
2023-04-15T23:45:55.581Z,10.93
2023-04-15T23:48:23.617Z,10.89
2023-04-15T23:50:50.431Z,10.83
2023-04-15T23:53:17.516Z,10.71
2023-04-15T23:55:43.962Z,10.62
2023-04-15T23:58:10.763Z,10.66
